Logo AVAMET
Benvolgut visitant, si us plau, ingressa Recuperar contrasenya

Xàtiva Hostals

Dades diàries. Acumulats / Últims 30 dies disponibles

Data Temperatura (°C) Humitat rel. (%) Pressió rel. (hPa) Vent (km/h) Precipitació
Mínima Mitjana Màxima Amplitud
tèrmica
Mínima Mitjana Màxima Mínima Mitjana Màxima Predom. Mitjana Ràfega
màxima
Total
(mm)
Índex-n
Mínima Mitjana Màxima Mínima Mitjana Màxima n
0 a 1
P0 max
mm 5'
Dades mensuals acumulades fins l'últim dia disponible
11/2019 9,8 14,0 21,1 17,1 16,9 21,2 27,7 17,9 20 48 79 1.002 1.013 1.023   8,2 57,6 4,2
Dades anuals acumulades fins l'últim dia disponible
2019 0,8 15,2 26,7 20,0 12,4 26,2 42,7 41,9 11 56 100 996 1.019 1.037   4,3 57,6 494,4
Últims 30 dies disponibles
14-11-2019 11,0     14,7     17,6 6,6 40 54 61 1.002 1.005 1.011 S 11,4 45,4 0,0
13-11-2019 14,1     16,5     20,9 6,8 43 58 79 1.006 1.010 1.013 S 8,1 35,6 2,4
12-11-2019 10,9     14,9     20,5 9,6 23 39 54 1.011 1.013 1.015 S 5,9 28,1 0,0
11-11-2019 9,8     13,2     17,5 7,7 32 46 55 1.012 1.015 1.017 S 5,2 27,0 0,0
10-11-2019 10,8     13,5     16,9 6,1 33 50 70 1.013 1.015 1.016 SSO 6,2 28,1 0,3
09-11-2019 11,3     14,6     19,4 8,1 22 41 68 1.015 1.019 1.022 S 5,8 29,5 0,9
08-11-2019 10,7     13,8     17,3 6,6 32 41 57 1.012 1.015 1.020 SSO 7,8 34,2 0,0
07-11-2019 12,9     16,4     21,5 8,6 20 48 61 1.009 1.012 1.016 SSE 9,8 31,7 0,0
06-11-2019 13,2     16,7     22,1 8,9 30 44 55 1.014 1.015 1.017 S 8,2 28,1 0,0
05-11-2019 15,3     17,7     20,6 5,3 32 46 58 1.008 1.012 1.015 S 8,5 41,8 0,0
04-11-2019 17,8     20,7     25,1 7,3 35 48 60 1.008 1.012 1.014 SSE 12,8 43,9 0,0
03-11-2019 18,9     21,1     23,3 4,4 37 46 58 1.004 1.008 1.014 S 11,0 57,6 0,6
02-11-2019 21,1     23,0     26,9 5,8 36 51 61 1.007 1.012 1.017 S 7,8 35,6 0,0
01-11-2019 18,6     23,2     27,7 9,1 41 56 71 1.017 1.020 1.023 SSE 5,8 25,6 0,0
31-10-2019 19,8     23,3     27,6 7,8 39 52 64 1.021 1.022 1.023 S 5,5 25,6 0,0
30-10-2019 15,1     20,7     27,7 12,6 40 61 82 1.021 1.022 1.023 SSE 2,6 25,6 0,0
29-10-2019 15,3     20,0     28,4 13,1 38 69 90 1.017 1.018 1.021 SE 1,1 13,3 0,0
28-10-2019 14,0     17,9     23,4 9,4 60 77 89 1.017 1.019 1.022 SE 1,2 18,4 0,0
27-10-2019 14,0     18,0     24,2 10,2 51 75 88 1.021 1.023 1.025 SSE 1,5 12,2 0,0
26-10-2019 12,9     17,8     24,0 11,1 50 68 80 1.021 1.023 1.024 SSE 1,8 15,8 0,0
25-10-2019 12,8     18,1     25,7 12,9 33 57 72 1.022 1.024 1.025 SSE 1,8 12,2 0,0
24-10-2019 12,9     17,0     21,9 9,0 40 53 66 1.013 1.018 1.024 S 6,4 25,6 0,0
23-10-2019 12,6     15,1     19,7 7,1 40 59 73 1.008 1.010 1.014 SSE 9,9 29,5 0,0
22-10-2019 12,8     14,2     16,3 3,5 70 85 100 1.007 1.013 1.020 S 3,6 18,4 47,7 0,34 2,00
21-10-2019 11,4     15,8     20,4 9,0 41 59 77 1.018 1.019 1.021 SSE 2,6 17,3 0,0
20-10-2019 16,5     18,9     21,1 4,6 43 59 73 1.007 1.011 1.018 SSE 4,2 22,0 0,3
19-10-2019 17,8     22,6     29,5 11,7 31 52 64 1.009 1.012 1.016 SSE 2,8 22,0 0,0
18-10-2019 17,9     23,0     29,6 11,7 32 46 55 1.016 1.018 1.020 SSE 4,0 29,5 0,0
17-10-2019 15,7     21,9     28,9 13,2 13 36 50 1.018 1.019 1.021 S 4,9 29,5 0,0
16-10-2019 14,4     19,9     27,9 13,5 13 36 52 1.018 1.021 1.024 SSE 3,4 27,0 0,0
Últims 13 mesos disponibles
10/2019 11,4 16,4 20,2 20,8 16,3 26,7 35,0 23,6 34 60 85 1.010 1.019 1.024 SSE 3,3 33,1 53,7
09/2019 14,6 20,1 23,5 24,1 20,5 29,5 36,9 22,3 32 67 92 1.013 1.020 1.026 S 3,8 39,2 134,1
08/2019 18,3 22,4 26,7 27,6 29,0 34,4 42,7 24,4 33 60 77 1.013 1.018 1.023 OSO 3,9 34,2 6,6
07/2019 21,1 22,9 26,5 28,2 29,1 34,9 40,2 19,1 31 55 73 1.009 1.017 1.024 SO 4,6 37,8 2,7
06/2019 13,4 18,2 22,4 24,2 23,2 30,9 39,7 26,3 27 52 71 1.012 1.018 1.024 SO 4,5 40,3 0,0
05/2019 9,3 14,9 21,1 20,1 19,9 26,6 33,3 24,0 40 57 79 1.008 1.017 1.026 S 4,3 41,8 33,0
04/2019 9,5 11,9 15,5 15,9 13,5 21,1 29,9 20,4 34 61 98 1.001 1.015 1.026 S 5,5 50,0 202,2
03/2019 5,9 9,8 15,5 15,3 12,4 21,7 28,6 22,7 27 48 90 1.015 1.024 1.032 N 3,9 37,8 57,9
02/2019 4,9 8,0 11,8 13,2 13,7 19,8 27,1 22,2 30 55 77 998 1.027 1.035 N 3,5 54,0 0,0
01/2019 0,8 7,1 13,3 11,6 13,1 17,6 22,2 21,4 35 51 70 1.005 1.021 1.033 N 3,9 54,0 0,0
12/2018 5,1 9,0 14,4 13,6 14,2 19,9 26,1 21,0 36 60 80 1.011 1.027 1.033 N 2,9 46,4 13,5
11/2018 7,1 12,0 16,0 15,0 14,0 18,9 25,5 18,4 42 66 97 1.003 1.017 1.025 S 4,4 40,0 120,0
10/2018 8,2 15,2 20,1 19,6 14,8 24,0 32,2 24,0 38 65 89 1.003 1.016 1.028 44,0 47,7
Tots els anys disponibles
2018 2,3 14,9 26,0 19,6 8,3 24,9 40,0 37,7 26 58 97 993 1.017 1.035 0,9 81,0 528,6
Temperatura (°C)
Humitat relativa (%)
Velocitat del vent i ràfega màxima (km/h)
Direcció del vent (°)
Pressió (hPa)
Precipitació (mm)
Nota sobre les dades: s'avisa a l'usuari de la provisionalitat i no oficialitat d'aquestes dades
Logo AVAMET blanc
Web allotjada a Sollutia
Llicència de Creative CommonsLa web d'AVAMET i els seus continguts estan subjectes a una llicència de
Reconeixement - No Comercial - Compartir igual
Últimes estacions: Xàbia - Alt de la Granadella (Soci), Villena - Sierra de Salinas (Soci), Sueca - Centre (Inforatge), Xàbia - La Plana (Soci), Banyeres de Mariola - Molí Sol (Soci), Villena - Villa Ventín (Soci), Benissa - Convent (Soci), - - -